createdAt,value
2023-04-05T00:00:43.776Z,99.90
2023-04-05T00:05:45.985Z,99.90
2023-04-05T00:10:47.881Z,99.90
2023-04-05T00:15:50.000Z,99.90
2023-04-05T00:20:52.351Z,99.90
2023-04-05T00:25:54.112Z,99.90
2023-04-05T00:30:56.012Z,99.90
2023-04-05T00:35:57.941Z,99.90
2023-04-05T00:40:59.749Z,99.90
2023-04-05T00:46:05.721Z,99.90
2023-04-05T00:51:11.596Z,99.90
2023-04-05T00:56:15.086Z,99.90
2023-04-05T01:01:20.065Z,99.90
2023-04-05T01:06:48.591Z,99.90
2023-04-05T01:11:52.719Z,99.90
2023-04-05T01:16:58.791Z,99.90
2023-04-05T01:22:18.517Z,99.90
2023-04-05T01:27:27.204Z,99.90
2023-04-05T01:32:50.590Z,99.90
2023-04-05T01:38:03.354Z,99.90
2023-04-05T01:43:15.619Z,99.90
2023-04-05T01:48:17.429Z,99.90
2023-04-05T01:53:19.238Z,99.90
2023-04-05T01:58:20.946Z,99.90
2023-04-05T02:03:23.888Z,99.90
2023-04-05T02:08:25.880Z,99.90
2023-04-05T02:13:27.975Z,99.90
2023-04-05T02:18:32.594Z,99.90
2023-04-05T02:23:35.066Z,99.90
2023-04-05T02:28:36.837Z,99.90
2023-04-05T02:33:39.567Z,99.90
2023-04-05T02:38:41.324Z,99.90
2023-04-05T02:43:43.173Z,99.90
2023-04-05T02:48:46.472Z,99.90
2023-04-05T02:53:48.220Z,99.90
2023-04-05T02:58:50.073Z,99.90
2023-04-05T03:03:52.185Z,99.90
2023-04-05T03:08:53.970Z,99.90
2023-04-05T03:13:55.956Z,99.90
2023-04-05T03:18:57.714Z,99.90
2023-04-05T03:24:00.334Z,99.90
2023-04-05T03:29:02.206Z,99.90
2023-04-05T03:34:04.255Z,99.90
2023-04-05T03:39:06.529Z,99.90
2023-04-05T03:44:09.039Z,99.90
2023-04-05T03:49:10.907Z,99.90
2023-04-05T03:54:12.873Z,99.90
2023-04-05T03:59:14.711Z,99.90
2023-04-05T04:04:16.494Z,99.90
2023-04-05T04:09:18.230Z,99.90
2023-04-05T04:14:20.126Z,99.90
2023-04-05T04:19:21.981Z,99.90
2023-04-05T04:24:27.453Z,99.90
2023-04-05T04:29:30.751Z,99.90
2023-04-05T04:34:34.701Z,99.90
2023-04-05T04:39:39.552Z,99.90
2023-04-05T04:44:42.692Z,99.90
2023-04-05T04:49:44.585Z,99.90
2023-04-05T04:54:47.304Z,99.90
2023-04-05T04:59:49.163Z,99.90
2023-04-05T05:04:51.373Z,99.90
2023-04-05T05:09:54.488Z,99.90
2023-04-05T05:14:56.779Z,99.90
2023-04-05T05:20:00.284Z,99.90
2023-04-05T05:25:02.498Z,99.90
2023-04-05T05:30:05.159Z,99.90
2023-04-05T05:35:08.440Z,99.90
2023-04-05T05:40:13.648Z,99.90
2023-04-05T05:45:15.460Z,99.90
2023-04-05T05:50:17.230Z,99.90
2023-04-05T05:55:19.037Z,99.90
2023-04-05T06:00:21.176Z,99.90
2023-04-05T06:05:22.897Z,99.90
2023-04-05T06:10:25.330Z,99.90
2023-04-05T06:15:27.458Z,99.90
2023-04-05T06:20:29.179Z,99.90
2023-04-05T06:25:31.052Z,99.90
2023-04-05T06:30:33.690Z,99.90
2023-04-05T06:35:35.608Z,99.90
2023-04-05T06:40:37.404Z,99.90
2023-04-05T06:45:39.210Z,99.90
2023-04-05T06:50:41.944Z,99.90
2023-04-05T06:55:50.877Z,99.90
2023-04-05T07:00:52.809Z,99.90
2023-04-05T07:05:56.973Z,99.90
2023-04-05T07:10:59.325Z,99.90
2023-04-05T07:16:02.525Z,99.90
2023-04-05T07:21:04.721Z,99.90
2023-04-05T07:26:08.021Z,99.90
2023-04-05T07:31:09.757Z,99.90
2023-04-05T07:36:11.501Z,99.90
2023-04-05T07:41:13.438Z,99.90
2023-04-05T07:46:15.378Z,99.90
2023-04-05T07:51:17.165Z,99.90
2023-04-05T07:56:18.923Z,99.90
2023-04-05T08:01:21.521Z,99.90
2023-04-05T08:06:24.799Z,99.90
2023-04-05T08:11:26.557Z,99.90
2023-04-05T08:16:28.764Z,99.90
2023-04-05T08:21:30.575Z,99.90
2023-04-05T08:26:32.282Z,99.90
2023-04-05T08:31:34.111Z,99.90
2023-04-05T08:36:35.900Z,99.90
2023-04-05T08:41:42.218Z,99.90
2023-04-05T08:46:44.145Z,99.90
2023-04-05T08:51:45.966Z,99.90
2023-04-05T08:56:51.797Z,99.90
2023-04-05T09:01:55.025Z,99.90
2023-04-05T09:06:59.136Z,99.90
2023-04-05T09:12:01.481Z,99.90
2023-04-05T09:17:04.400Z,99.90
2023-04-05T09:22:07.921Z,99.90
2023-04-05T09:27:14.146Z,99.90
2023-04-05T09:32:21.393Z,99.90
2023-04-05T09:37:23.348Z,99.90
2023-04-05T09:42:26.103Z,99.90
2023-04-05T09:47:34.262Z,99.90
2023-04-05T09:52:36.736Z,99.90
2023-04-05T09:57:40.815Z,99.90
2023-04-05T10:02:43.069Z,99.90
2023-04-05T10:07:45.779Z,99.90
2023-04-05T10:12:49.476Z,99.90
2023-04-05T10:18:01.001Z,99.90
2023-04-05T10:23:13.543Z,99.90
2023-04-05T10:28:31.553Z,96.40
2023-04-05T10:33:43.422Z,97.20
2023-04-05T10:38:58.789Z,97.70
2023-04-05T10:44:09.208Z,97.40
2023-04-05T10:49:22.474Z,95.30
2023-04-05T10:54:25.320Z,97.40
2023-04-05T10:59:28.283Z,97.50
2023-04-05T11:04:30.100Z,97.50
2023-04-05T11:09:32.006Z,97.80
2023-04-05T11:14:39.128Z,97.20
2023-04-05T11:19:52.622Z,97.80
2023-04-05T11:24:59.212Z,98.00
2023-04-05T11:30:02.165Z,97.20
2023-04-05T11:35:13.164Z,95.20
2023-04-05T11:40:34.839Z,94.50
2023-04-05T11:45:38.632Z,94.30
2023-04-05T11:50:45.491Z,93.50
2023-04-05T11:55:51.318Z,93.00
2023-04-05T12:01:01.165Z,91.40
2023-04-05T12:06:04.923Z,92.00
2023-04-05T12:11:12.298Z,92.50
2023-04-05T12:16:14.319Z,91.00
2023-04-05T12:21:16.169Z,91.70
2023-04-05T12:26:18.686Z,93.40
2023-04-05T12:31:43.668Z,91.20
2023-04-05T12:36:46.751Z,88.30
2023-04-05T12:42:06.827Z,90.60
2023-04-05T12:47:11.051Z,88.70
2023-04-05T12:52:20.211Z,89.10
2023-04-05T12:57:40.323Z,91.00
2023-04-05T13:02:42.112Z,91.70
2023-04-05T13:07:43.934Z,90.60
2023-04-05T13:12:46.110Z,91.00
2023-04-05T13:17:50.355Z,91.40
2023-04-05T13:22:52.333Z,90.80
2023-04-05T13:27:54.173Z,90.80
2023-04-05T13:32:56.012Z,89.30
2023-04-05T13:37:57.795Z,91.00
2023-04-05T13:43:01.221Z,91.50
2023-04-05T13:48:03.443Z,91.30
2023-04-05T13:53:05.420Z,91.60
2023-04-05T13:58:07.124Z,91.60
2023-04-05T14:03:08.925Z,90.80
2023-04-05T14:08:10.979Z,91.30
2023-04-05T14:13:16.138Z,90.50
2023-04-05T14:18:17.921Z,91.30
2023-04-05T14:23:19.766Z,91.40
2023-04-05T14:28:21.486Z,91.10
2023-04-05T14:33:23.946Z,91.30
2023-04-05T14:38:25.885Z,91.50
2023-04-05T14:43:27.690Z,91.40
2023-04-05T14:48:31.721Z,91.90
2023-04-05T14:53:33.580Z,91.40
2023-04-05T14:58:35.446Z,91.90
2023-04-05T15:03:37.987Z,92.20
2023-04-05T15:08:39.916Z,92.00
2023-04-05T15:13:41.705Z,91.70
2023-04-05T15:18:43.427Z,92.40
2023-04-05T15:23:45.414Z,92.60
2023-04-05T15:28:47.253Z,92.40
2023-04-05T15:33:48.984Z,92.10
2023-04-05T15:38:50.953Z,92.20
2023-04-05T15:43:52.908Z,92.30
2023-04-05T15:48:54.698Z,92.70
2023-04-05T15:53:56.939Z,92.60
2023-04-05T15:58:58.885Z,93.00
2023-04-05T16:04:01.238Z,93.70
2023-04-05T16:09:03.492Z,93.60
2023-04-05T16:14:05.720Z,94.10
2023-04-05T16:19:08.281Z,94.10
2023-04-05T16:24:10.249Z,94.10
2023-04-05T16:29:12.035Z,93.60
2023-04-05T16:34:14.211Z,94.20
2023-04-05T16:39:16.038Z,94.60
2023-04-05T16:44:17.792Z,95.20
2023-04-05T16:49:19.548Z,95.40
2023-04-05T16:54:21.572Z,95.90
2023-04-05T16:59:23.551Z,96.10
2023-04-05T17:04:25.450Z,96.80
2023-04-05T17:09:29.260Z,97.40
2023-04-05T17:14:31.506Z,97.90
2023-04-05T17:19:33.337Z,98.80
2023-04-05T17:24:36.406Z,99.60
2023-04-05T17:29:39.153Z,99.90
2023-04-05T17:34:41.299Z,99.60
2023-04-05T17:39:43.019Z,99.90
2023-04-05T17:44:44.746Z,99.90
2023-04-05T17:49:46.515Z,99.30
2023-04-05T17:54:48.588Z,99.00
2023-04-05T17:59:50.546Z,99.50
2023-04-05T18:04:52.297Z,99.30
2023-04-05T18:09:54.172Z,99.20
2023-04-05T18:14:55.913Z,98.90
2023-04-05T18:19:57.759Z,98.90
2023-04-05T18:24:59.802Z,98.80
2023-04-05T18:30:01.686Z,98.70
2023-04-05T18:35:03.449Z,99.20
2023-04-05T18:40:05.928Z,99.50
2023-04-05T18:45:08.104Z,99.10
2023-04-05T18:50:10.736Z,99.20
2023-04-05T18:55:14.055Z,99.30
2023-04-05T19:00:16.133Z,99.40
2023-04-05T19:05:18.038Z,99.20
2023-04-05T19:10:19.853Z,99.20
2023-04-05T19:15:21.671Z,99.70
2023-04-05T19:20:23.504Z,99.30
2023-04-05T19:25:25.645Z,99.60
2023-04-05T19:30:27.380Z,99.50
2023-04-05T19:35:31.178Z,99.50
2023-04-05T19:40:33.001Z,99.80
2023-04-05T19:45:35.189Z,99.30
2023-04-05T19:50:56.386Z,99.20
2023-04-05T19:55:58.455Z,99.80
2023-04-05T20:01:00.558Z,99.10
2023-04-05T20:06:04.207Z,99.40
2023-04-05T20:11:08.229Z,99.50
2023-04-05T20:16:11.742Z,99.90
2023-04-05T20:21:14.285Z,99.90
2023-04-05T20:26:17.583Z,99.90
2023-04-05T20:31:22.962Z,99.90
2023-04-05T20:36:37.014Z,99.10
2023-04-05T20:41:38.771Z,99.10
2023-04-05T20:46:41.018Z,98.80
2023-04-05T20:51:43.224Z,98.80
2023-04-05T20:56:45.840Z,99.20
2023-04-05T21:01:48.992Z,98.80
2023-04-05T21:06:50.887Z,99.30
2023-04-05T21:11:52.689Z,99.70
2023-04-05T21:16:54.572Z,99.90
2023-04-05T21:21:56.345Z,99.90
2023-04-05T21:26:58.479Z,99.90
2023-04-05T21:32:00.302Z,99.90
2023-04-05T21:37:02.017Z,99.80
2023-04-05T21:42:03.923Z,99.90
2023-04-05T21:47:05.658Z,99.90
2023-04-05T21:52:07.392Z,99.90
2023-04-05T21:57:09.133Z,99.90
2023-04-05T22:02:12.229Z,99.90
2023-04-05T22:07:14.098Z,99.90
2023-04-05T22:12:16.198Z,99.90
2023-04-05T22:17:18.635Z,99.90
2023-04-05T22:22:20.546Z,99.90
2023-04-05T22:27:22.361Z,99.90
2023-04-05T22:32:24.227Z,99.90
2023-04-05T22:37:26.058Z,99.90
2023-04-05T22:42:27.838Z,99.90
2023-04-05T22:47:29.690Z,99.90
2023-04-05T22:52:31.469Z,99.90
2023-04-05T22:57:33.238Z,99.90
2023-04-05T23:02:35.063Z,99.90
2023-04-05T23:07:36.841Z,99.90
2023-04-05T23:12:39.404Z,99.90
2023-04-05T23:17:41.180Z,99.90
2023-04-05T23:22:43.042Z,99.90
2023-04-05T23:27:44.870Z,99.90
2023-04-05T23:32:46.810Z,99.90
2023-04-05T23:37:49.049Z,99.90
2023-04-05T23:42:51.130Z,99.90
2023-04-05T23:47:54.418Z,99.90
2023-04-05T23:52:57.903Z,99.90
2023-04-05T23:58:00.170Z,99.90
